Time;durP1;ratioP1;P1;durP2;ratioP2;P2;SDS_P1;SDS_P2;PMS_P1;PMS_P2;Temp;Humidity;BMP_temperature;BMP_pressure;BME280_temperature;BME280_humidity;BME280_pressure;Samples;Min_cycle;Max_cycle;Signal;HPM_P1;HPM_P2
2021/12/22 00:00:09;;;;;;;30.33;13.05;;;-3.30;99.90;;;;;;5030005;28;20345;-65
2021/12/22 00:02:35;;;;;;;24.90;12.43;;;-3.40;99.90;;;;;;5028055;28;20040;-65
2021/12/22 00:05:01;;;;;;;25.60;12.65;;;-3.40;99.90;;;;;;5032557;28;20068;-66
2021/12/22 00:07:26;;;;;;;28.10;12.90;;;-3.40;99.90;;;;;;5050345;28;20041;-65
2021/12/22 00:09:52;;;;;;;34.38;13.20;;;-3.50;99.90;;;;;;5031852;28;20045;-65
2021/12/22 00:12:17;;;;;;;29.17;12.57;;;-3.40;99.90;;;;;;5033183;28;20045;-65
2021/12/22 00:14:43;;;;;;;25.27;12.57;;;-3.50;99.90;;;;;;5029633;28;20043;-65
2021/12/22 00:17:09;;;;;;;22.85;12.43;;;-3.50;99.90;;;;;;5031610;28;20072;-65
2021/12/22 00:19:34;;;;;;;26.60;12.40;;;-3.60;99.90;;;;;;5029974;28;20040;-66
2021/12/22 00:22:00;;;;;;;27.17;13.20;;;-3.60;99.90;;;;;;5032002;28;20140;-65
2021/12/22 00:24:26;;;;;;;27.17;13.07;;;-3.60;99.90;;;;;;5048897;28;20150;-66
2021/12/22 00:26:53;;;;;;;35.10;12.02;;;-3.60;99.90;;;;;;5032438;28;20133;-65
2021/12/22 00:29:19;;;;;;;26.55;12.55;;;-3.60;99.90;;;;;;5048920;28;20048;-65
2021/12/22 00:31:57;;;;;;;33.95;12.57;;;-3.70;99.90;;;;;;5030424;28;20040;-65
2021/12/22 00:34:25;;;;;;;24.48;12.25;;;-3.70;99.90;;;;;;5036977;28;20037;-65
2021/12/22 00:36:51;;;;;;;27.77;12.70;;;-3.70;99.90;;;;;;5030300;28;20049;-65
2021/12/22 00:39:16;;;;;;;28.48;12.73;;;-3.80;99.90;;;;;;5033556;28;20039;-65
2021/12/22 00:41:42;;;;;;;28.95;12.75;;;-3.80;99.90;;;;;;5028616;28;20037;-65
2021/12/22 00:44:09;;;;;;;26.48;11.57;;;-3.70;99.90;;;;;;5015165;28;20848;-65
2021/12/22 00:46:35;;;;;;;22.67;11.48;;;-3.80;99.90;;;;;;5027935;28;20053;-65
2021/12/22 00:49:00;;;;;;;25.77;12.70;;;-3.80;99.90;;;;;;5032202;28;20040;-65
2021/12/22 00:51:26;;;;;;;27.20;12.35;;;-3.80;99.90;;;;;;5049380;28;20062;-65
2021/12/22 00:53:51;;;;;;;23.40;11.57;;;-3.90;99.90;;;;;;5049151;28;20049;-65
2021/12/22 00:56:17;;;;;;;30.13;12.70;;;-3.90;99.90;;;;;;5026011;28;20056;-65
2021/12/22 00:58:42;;;;;;;29.60;11.73;;;-4.00;99.90;;;;;;5013151;28;20387;-65
2021/12/22 01:01:08;;;;;;;21.88;11.13;;;-4.00;99.90;;;;;;5028369;28;20548;-65
2021/12/22 01:03:36;;;;;;;31.33;12.00;;;-4.10;99.90;;;;;;5032092;28;20484;-65
2021/12/22 01:06:03;;;;;;;26.05;11.68;;;-4.10;99.90;;;;;;5048297;28;20036;-65
2021/12/22 01:08:29;;;;;;;22.70;12.05;;;-4.10;99.90;;;;;;5050496;28;20043;-66
2021/12/22 01:10:55;;;;;;;26.48;11.90;;;-4.10;99.90;;;;;;5010529;28;20401;-65
2021/12/22 01:13:20;;;;;;;21.65;11.48;;;-4.20;99.90;;;;;;5049194;28;20551;-65
2021/12/22 01:15:46;;;;;;;20.83;10.60;;;-4.20;99.90;;;;;;5014096;28;20171;-65
2021/12/22 01:18:26;;;;;;;26.20;12.73;;;-4.20;99.90;;;;;;5028597;28;20064;-65
2021/12/22 01:23:19;;;;;;;26.15;12.52;;;-4.20;99.90;;;;;;5041996;28;20511;-66
2021/12/22 01:25:47;;;;;;;23.20;12.18;;;-4.30;99.90;;;;;;5045999;28;20080;-65
2021/12/22 01:28:14;;;;;;;29.63;12.32;;;-4.30;99.90;;;;;;5030845;28;20503;-65
2021/12/22 01:30:44;;;;;;;24.73;11.63;;;-4.20;99.90;;;;;;5029899;28;20045;-65
2021/12/22 01:33:10;;;;;;;26.40;11.75;;;-4.30;99.90;;;;;;5013109;28;20037;-66
2021/12/22 01:35:37;;;;;;;22.48;11.55;;;-4.30;99.90;;;;;;5049729;28;20033;-65
2021/12/22 01:38:04;;;;;;;25.50;11.88;;;-4.30;99.90;;;;;;5030470;28;20032;-65
2021/12/22 01:40:32;;;;;;;26.00;11.75;;;-4.20;99.90;;;;;;5031581;28;20071;-65
2021/12/22 01:42:58;;;;;;;23.80;11.50;;;-4.20;99.90;;;;;;5029480;28;20096;-66
2021/12/22 01:45:51;;;;;;;22.95;10.90;;;-4.30;99.90;;;;;;5026192;28;20120;-66
2021/12/22 01:51:06;;;;;;;27.00;11.75;;;-4.40;99.90;;;;;;5047352;28;20041;-65
2021/12/22 01:53:45;;;;;;;22.08;11.13;;;-4.50;99.90;;;;;;5046379;28;20056;-65
2021/12/22 01:56:26;;;;;;;22.15;10.18;;;-4.50;99.90;;;;;;5043043;28;20111;-65
2021/12/22 01:58:58;;;;;;;22.02;9.40;;;-4.60;99.90;;;;;;5026877;28;20095;-67
2021/12/22 02:01:25;;;;;;;19.65;10.50;;;-4.60;99.90;;;;;;5045744;28;20063;-65
2021/12/22 02:03:53;;;;;;;20.30;10.52;;;-4.60;99.90;;;;;;5029641;28;20068;-66
2021/12/22 02:06:19;;;;;;;20.48;10.38;;;-4.70;99.90;;;;;;5021565;28;20460;-66
2021/12/22 02:08:46;;;;;;;23.65;10.35;;;-4.70;99.90;;;;;;5029427;28;20071;-66
2021/12/22 02:11:14;;;;;;;21.52;9.85;;;-4.70;99.90;;;;;;5029440;28;20703;-65
2021/12/22 02:13:43;;;;;;;25.08;10.93;;;-4.70;99.90;;;;;;5029868;28;20376;-65
2021/12/22 02:16:14;;;;;;;23.80;10.25;;;-4.70;99.90;;;;;;5045605;28;20039;-66
2021/12/22 02:18:47;;;;;;;24.27;11.13;;;-4.80;99.90;;;;;;5035810;28;20046;-66
2021/12/22 02:21:13;;;;;;;23.02;11.15;;;-4.90;99.90;;;;;;5021274;28;20033;-66
2021/12/22 02:23:41;;;;;;;23.05;11.02;;;-4.80;99.90;;;;;;5044567;28;20045;-66
2021/12/22 02:26:18;;;;;;;22.67;10.63;;;-4.80;99.90;;;;;;5009587;28;20124;-66
2021/12/22 02:28:48;;;;;;;26.33;10.43;;;-4.80;99.90;;;;;;5025724;28;20045;-66
2021/12/22 02:31:18;;;;;;;20.77;10.32;;;-4.80;99.90;;;;;;5028941;28;20044;-66
2021/12/22 02:33:47;;;;;;;28.75;10.88;;;-4.80;99.90;;;;;;5015179;28;20094;-65
2021/12/22 02:38:44;;;;;;;22.70;11.20;;;-4.70;99.90;;;;;;5030248;28;20049;-65
2021/12/22 02:41:13;;;;;;;19.38;10.05;;;-4.70;99.90;;;;;;5031162;28;20076;-66
2021/12/22 02:43:49;;;;;;;20.93;10.00;;;-4.70;99.90;;;;;;5045576;28;20049;-66
2021/12/22 02:46:19;;;;;;;20.90;10.63;;;-4.70;99.90;;;;;;5013211;28;20322;-66
2021/12/22 02:48:46;;;;;;;22.15;10.00;;;-4.70;99.90;;;;;;5029868;28;20357;-66
2021/12/22 02:51:13;;;;;;;21.67;10.38;;;-4.80;99.90;;;;;;5029685;28;20040;-66
2021/12/22 02:56:18;;;;;;;25.42;11.55;;;-4.90;99.90;;;;;;5029512;28;20130;-66
2021/12/22 02:58:57;;;;;;;25.80;11.23;;;-4.80;99.90;;;;;;5013506;28;20136;-66
2021/12/22 03:01:41;;;;;;;21.05;10.15;;;-4.80;99.90;;;;;;5041940;28;20053;-66
2021/12/22 03:04:13;;;;;;;23.40;10.38;;;-4.80;99.90;;;;;;5016950;28;20075;-66
2021/12/22 03:06:54;;;;;;;23.65;10.02;;;-4.90;99.90;;;;;;5030801;28;20445;-66
2021/12/22 03:09:32;;;;;;;23.90;10.23;;;-4.90;99.90;;;;;;5031459;28;20079;-66
2021/12/22 03:12:01;;;;;;;20.52;10.93;;;-4.90;99.90;;;;;;5026744;28;20048;-66
2021/12/22 03:14:29;;;;;;;22.75;11.18;;;-4.90;99.90;;;;;;5028007;28;20110;-66
2021/12/22 03:16:55;;;;;;;23.73;10.93;;;-4.90;99.90;;;;;;5023301;28;20087;-66
2021/12/22 03:19:24;;;;;;;26.50;11.38;;;-4.90;99.90;;;;;;5046927;28;20071;-66
2021/12/22 03:21:53;;;;;;;25.45;10.25;;;-4.90;99.90;;;;;;5016364;28;20118;-66
2021/12/22 03:24:21;;;;;;;25.30;10.75;;;-5.00;99.90;;;;;;5052697;28;20052;-66
2021/12/22 03:26:46;;;;;;;21.75;10.55;;;-5.00;99.90;;;;;;5033187;28;20045;-66
2021/12/22 03:29:14;;;;;;;27.95;10.73;;;-5.00;99.90;;;;;;5015202;28;20044;-66
2021/12/22 03:31:41;;;;;;;21.92;10.43;;;-5.00;99.90;;;;;;5033537;28;20036;-66
2021/12/22 03:34:08;;;;;;;23.05;10.38;;;-5.00;99.90;;;;;;5031379;28;20045;-66
2021/12/22 03:36:35;;;;;;;23.58;10.48;;;-5.00;99.90;;;;;;5034519;28;20040;-66
2021/12/22 03:39:02;;;;;;;27.00;10.80;;;-5.00;99.90;;;;;;5034617;28;20175;-66
2021/12/22 03:41:27;;;;;;;21.83;9.88;;;-5.00;99.90;;;;;;5017669;28;20060;-66
2021/12/22 03:43:53;;;;;;;18.98;10.07;;;-5.00;99.90;;;;;;5030638;28;20037;-66
2021/12/22 03:46:18;;;;;;;22.52;11.95;;;-5.10;99.90;;;;;;5029569;28;20398;-65
2021/12/22 03:48:44;;;;;;;18.42;9.68;;;-5.10;99.90;;;;;;5034483;28;20041;-66
2021/12/22 03:51:09;;;;;;;23.33;10.60;;;-5.20;99.90;;;;;;5029670;28;20599;-66
2021/12/22 03:53:35;;;;;;;18.95;9.73;;;-5.20;99.90;;;;;;5032832;28;20504;-66
2021/12/22 03:56:01;;;;;;;22.25;10.07;;;-5.30;99.90;;;;;;5048308;28;20398;-66
2021/12/22 03:58:27;;;;;;;20.77;11.07;;;-5.30;99.90;;;;;;5025975;28;20052;-66
2021/12/22 04:00:55;;;;;;;22.35;10.60;;;-5.30;99.90;;;;;;5012183;28;20566;-66
2021/12/22 04:03:23;;;;;;;20.58;9.68;;;-5.30;99.90;;;;;;5030732;28;20666;-66
2021/12/22 04:05:49;;;;;;;22.75;10.15;;;-5.30;99.90;;;;;;5031293;28;20472;-66
2021/12/22 04:08:18;;;;;;;21.08;10.30;;;-5.40;99.90;;;;;;5049100;28;20037;-66
2021/12/22 04:10:46;;;;;;;22.13;10.23;;;-5.40;99.90;;;;;;5051106;28;20468;-66
2021/12/22 04:13:11;;;;;;;23.77;10.52;;;-5.40;99.90;;;;;;5050074;28;20054;-66
2021/12/22 04:15:37;;;;;;;20.20;9.20;;;-5.40;99.90;;;;;;5030314;28;20511;-66
2021/12/22 04:18:03;;;;;;;21.17;9.90;;;-5.50;99.90;;;;;;5029383;28;20108;-66
2021/12/22 04:20:29;;;;;;;20.20;10.13;;;-5.50;99.90;;;;;;5031223;28;20048;-67
2021/12/22 04:22:56;;;;;;;21.60;9.73;;;-5.50;99.90;;;;;;5046747;28;20047;-66
2021/12/22 04:25:22;;;;;;;21.25;10.73;;;-5.50;99.90;;;;;;5029692;28;20048;-66
2021/12/22 04:27:50;;;;;;;23.45;10.68;;;-5.50;99.90;;;;;;5011347;28;20076;-66
2021/12/22 04:30:16;;;;;;;26.58;10.90;;;-5.50;99.90;;;;;;5008987;28;20037;-66
2021/12/22 04:32:41;;;;;;;19.25;10.07;;;-5.50;99.90;;;;;;5026223;28;20049;-66
2021/12/22 04:35:07;;;;;;;22.75;11.75;;;-5.50;99.90;;;;;;5011409;28;20059;-66
2021/12/22 04:37:33;;;;;;;26.27;11.07;;;-5.50;99.90;;;;;;5029703;28;20150;-66
2021/12/22 04:39:58;;;;;;;21.92;9.60;;;-5.50;99.90;;;;;;5033727;28;20049;-66
2021/12/22 04:42:24;;;;;;;20.73;10.10;;;-5.50;99.90;;;;;;5033204;28;20068;-65
2021/12/22 04:44:53;;;;;;;21.13;9.85;;;-5.50;99.90;;;;;;5050160;28;20044;-65
2021/12/22 04:47:20;;;;;;;20.23;10.20;;;-5.50;99.90;;;;;;5030366;28;20045;-66
2021/12/22 04:49:46;;;;;;;23.58;11.15;;;-5.60;99.90;;;;;;5031773;28;20033;-66
2021/12/22 04:52:16;;;;;;;25.50;10.95;;;-5.50;99.90;;;;;;5032361;28;20033;-66
2021/12/22 04:55:03;;;;;;;27.67;11.70;;;-5.50;99.90;;;;;;5043651;28;20041;-66
2021/12/22 04:57:30;;;;;;;27.15;10.98;;;-5.50;99.90;;;;;;5018971;28;20050;-66
2021/12/22 04:59:55;;;;;;;24.83;11.30;;;-5.50;99.90;;;;;;5031404;28;20063;-66
2021/12/22 05:02:21;;;;;;;25.70;11.13;;;-5.50;99.90;;;;;;5047412;28;20048;-66
2021/12/22 05:04:46;;;;;;;29.95;10.65;;;-5.50;99.90;;;;;;5030045;28;20152;-66
2021/12/22 05:07:12;;;;;;;23.92;10.35;;;-5.50;99.90;;;;;;5049655;28;20113;-66
2021/12/22 05:09:37;;;;;;;24.85;11.60;;;-5.50;99.90;;;;;;5027342;28;20118;-66
2021/12/22 05:12:04;;;;;;;24.13;10.77;;;-5.50;99.90;;;;;;5029673;28;20124;-66
2021/12/22 05:14:29;;;;;;;29.55;11.93;;;-5.50;99.90;;;;;;5021504;28;20033;-66
2021/12/22 05:17:00;;;;;;;22.05;10.68;;;-5.50;99.90;;;;;;5030155;28;20091;-66
2021/12/22 05:19:26;;;;;;;27.77;12.95;;;-5.60;99.90;;;;;;5026909;28;20381;-66
2021/12/22 05:21:52;;;;;;;23.55;10.25;;;-5.50;99.90;;;;;;5032316;28;20041;-66
2021/12/22 05:24:17;;;;;;;26.90;10.30;;;-5.50;99.90;;;;;;5050627;28;20037;-66
2021/12/22 05:26:43;;;;;;;23.67;11.88;;;-5.50;99.90;;;;;;5031031;28;20087;-65
2021/12/22 05:29:09;;;;;;;20.05;10.00;;;-5.50;99.90;;;;;;5029285;28;20157;-66
2021/12/22 05:31:34;;;;;;;22.92;10.95;;;-5.50;99.90;;;;;;5048038;28;20040;-66
2021/12/22 05:34:00;;;;;;;23.38;10.55;;;-5.60;99.90;;;;;;5048664;28;20044;-66
2021/12/22 05:36:26;;;;;;;23.65;10.60;;;-5.60;99.90;;;;;;5030763;28;20160;-66
2021/12/22 05:38:53;;;;;;;24.27;11.85;;;-5.60;99.90;;;;;;5051289;28;20033;-66
2021/12/22 05:41:19;;;;;;;24.40;10.95;;;-5.60;99.90;;;;;;5032080;28;20041;-66
2021/12/22 05:43:44;;;;;;;23.33;10.65;;;-5.50;99.90;;;;;;5029156;28;20048;-66
2021/12/22 05:46:10;;;;;;;27.15;11.98;;;-5.60;99.90;;;;;;5027454;28;20171;-66
2021/12/22 05:48:35;;;;;;;25.02;11.07;;;-5.60;99.90;;;;;;5031764;28;20136;-66
2021/12/22 05:51:02;;;;;;;25.60;12.68;;;-5.60;99.90;;;;;;5015636;28;20047;-66
2021/12/22 05:53:28;;;;;;;29.00;11.68;;;-5.60;99.90;;;;;;5030188;28;20066;-67
2021/12/22 05:55:55;;;;;;;26.67;12.48;;;-5.50;99.90;;;;;;5029119;28;20067;-66
2021/12/22 05:58:22;;;;;;;22.42;10.88;;;-5.50;99.90;;;;;;5049754;28;20044;-66
2021/12/22 06:00:48;;;;;;;25.42;12.05;;;-5.50;99.90;;;;;;5026183;28;20044;-66
2021/12/22 06:03:13;;;;;;;26.65;11.48;;;-5.40;99.90;;;;;;5012701;28;20110;-66
2021/12/22 06:05:40;;;;;;;28.98;12.57;;;-5.30;99.90;;;;;;5046616;28;20037;-66
2021/12/22 06:08:06;;;;;;;29.77;12.82;;;-5.30;99.90;;;;;;5029298;28;20044;-67
2021/12/22 06:10:36;;;;;;;23.08;10.90;;;-5.20;99.90;;;;;;5031897;28;20114;-66
2021/12/22 06:13:06;;;;;;;26.35;11.63;;;-5.20;99.90;;;;;;5026812;28;20064;-66
2021/12/22 06:15:33;;;;;;;20.85;10.60;;;-5.20;99.90;;;;;;5027133;28;20048;-66
2021/12/22 06:18:00;;;;;;;32.90;11.82;;;-5.30;99.90;;;;;;5046489;28;20036;-66
2021/12/22 06:20:27;;;;;;;24.02;11.85;;;-5.30;99.90;;;;;;5010976;28;20044;-66
2021/12/22 06:22:53;;;;;;;25.33;11.50;;;-5.30;99.90;;;;;;5033498;28;20045;-66
2021/12/22 06:25:19;;;;;;;23.98;11.48;;;-5.40;99.90;;;;;;5027007;28;20076;-66
2021/12/22 06:27:44;;;;;;;28.40;11.77;;;-5.40;99.90;;;;;;5018936;28;20041;-66
2021/12/22 06:30:10;;;;;;;28.77;11.75;;;-5.40;99.90;;;;;;5046247;28;20749;-66
2021/12/22 06:32:37;;;;;;;27.50;11.90;;;-5.50;99.90;;;;;;5043893;28;20041;-66
2021/12/22 06:35:02;;;;;;;27.25;11.00;;;-5.50;99.90;;;;;;5022390;28;20044;-66
2021/12/22 06:37:28;;;;;;;31.75;13.52;;;-5.50;99.90;;;;;;5030307;28;20044;-67
2021/12/22 06:39:54;;;;;;;27.88;10.90;;;-5.50;99.90;;;;;;5049916;28;20123;-66
2021/12/22 06:42:20;;;;;;;30.23;11.82;;;-5.50;99.90;;;;;;5030041;28;20061;-66
2021/12/22 06:44:45;;;;;;;31.13;12.43;;;-5.50;99.90;;;;;;5030150;28;20477;-66
2021/12/22 06:47:11;;;;;;;26.88;12.32;;;-5.40;99.90;;;;;;5047235;28;20071;-66
2021/12/22 06:49:37;;;;;;;27.40;11.55;;;-5.40;99.90;;;;;;5034167;28;20040;-66
2021/12/22 06:52:04;;;;;;;29.52;11.90;;;-5.50;99.90;;;;;;5013068;28;20530;-66
2021/12/22 06:54:29;;;;;;;26.48;10.95;;;-5.50;99.90;;;;;;5035807;28;20083;-66
2021/12/22 06:56:56;;;;;;;26.55;11.88;;;-5.50;99.90;;;;;;5030853;28;20045;-67
2021/12/22 06:59:21;;;;;;;26.92;12.43;;;-5.50;99.90;;;;;;5052435;28;20029;-66
2021/12/22 07:01:48;;;;;;;29.75;12.35;;;-5.40;99.90;;;;;;5018055;28;20393;-66
2021/12/22 07:04:13;;;;;;;25.40;11.15;;;-5.50;99.90;;;;;;5028026;28;20060;-67
2021/12/22 07:06:39;;;;;;;27.42;13.00;;;-5.50;99.90;;;;;;5051302;28;20063;-66
2021/12/22 07:09:07;;;;;;;30.67;11.80;;;-5.40;99.90;;;;;;5032855;28;20480;-66
2021/12/22 07:11:34;;;;;;;25.08;11.55;;;-5.40;99.90;;;;;;5033453;28;20033;-66
2021/12/22 07:14:00;;;;;;;25.13;12.38;;;-5.40;99.90;;;;;;5040711;28;20037;-67
2021/12/22 07:16:26;;;;;;;24.00;12.27;;;-5.50;99.90;;;;;;5034312;28;20044;-66
2021/12/22 07:18:51;;;;;;;25.08;12.25;;;-5.50;99.90;;;;;;5021064;28;20809;-66
2021/12/22 07:21:17;;;;;;;29.50;12.30;;;-5.50;99.90;;;;;;5033597;28;20489;-66
2021/12/22 07:23:43;;;;;;;25.25;11.85;;;-5.50;99.90;;;;;;5019190;28;20604;-66
2021/12/22 07:26:13;;;;;;;25.23;10.65;;;-5.60;99.90;;;;;;5045585;28;20408;-66
2021/12/22 07:28:40;;;;;;;27.52;11.98;;;-5.50;99.90;;;;;;5026237;28;20080;-66
2021/12/22 07:31:06;;;;;;;24.75;11.32;;;-5.60;99.90;;;;;;5014884;28;20120;-66
2021/12/22 07:33:31;;;;;;;24.75;11.05;;;-5.60;99.90;;;;;;5030903;28;20179;-66
2021/12/22 07:35:59;;;;;;;29.45;10.90;;;-5.60;99.90;;;;;;5031618;28;20044;-66
2021/12/22 07:38:30;;;;;;;23.60;11.32;;;-5.60;99.90;;;;;;5016230;28;20036;-66
2021/12/22 07:40:56;;;;;;;26.02;11.60;;;-5.60;99.90;;;;;;5014596;28;20045;-66
2021/12/22 07:43:22;;;;;;;28.38;11.57;;;-5.60;99.90;;;;;;5029556;28;20049;-66
2021/12/22 07:45:48;;;;;;;31.00;12.40;;;-5.60;99.90;;;;;;5011852;28;20051;-66
2021/12/22 07:48:13;;;;;;;28.92;13.05;;;-5.60;99.90;;;;;;5033133;28;20186;-66
2021/12/22 07:50:39;;;;;;;26.40;11.45;;;-5.60;99.90;;;;;;5033116;28;20051;-66
2021/12/22 07:53:05;;;;;;;27.05;11.73;;;-5.60;99.90;;;;;;5034122;28;20029;-66
2021/12/22 07:55:30;;;;;;;34.17;13.13;;;-5.60;99.90;;;;;;5026368;28;20139;-66
2021/12/22 07:57:56;;;;;;;29.58;12.45;;;-5.60;99.90;;;;;;5015380;28;20475;-66
2021/12/22 08:00:22;;;;;;;26.77;12.77;;;-5.60;99.90;;;;;;5047080;28;20045;-66
2021/12/22 08:02:48;;;;;;;33.83;12.23;;;-5.50;99.90;;;;;;5032109;28;20457;-66
2021/12/22 08:05:13;;;;;;;27.60;12.10;;;-5.50;99.90;;;;;;5015819;28;20029;-66
2021/12/22 08:07:39;;;;;;;23.33;10.48;;;-5.50;99.90;;;;;;5032686;28;20095;-66
2021/12/22 08:10:06;;;;;;;30.92;12.02;;;-5.50;99.90;;;;;;5051891;28;20183;-66
2021/12/22 08:12:32;;;;;;;25.65;11.70;;;-5.50;99.90;;;;;;5048326;28;20052;-66
2021/12/22 08:14:58;;;;;;;30.40;11.00;;;-5.50;99.90;;;;;;5048073;28;20452;-66
2021/12/22 08:17:27;;;;;;;26.95;11.43;;;-5.40;99.90;;;;;;5045753;28;20037;-66
2021/12/22 08:19:53;;;;;;;28.48;12.55;;;-5.40;99.90;;;;;;5050622;28;20380;-66
2021/12/22 08:22:19;;;;;;;30.88;12.48;;;-5.40;99.90;;;;;;5050038;28;20051;-66
2021/12/22 08:24:45;;;;;;;31.08;12.77;;;-5.40;99.90;;;;;;5014798;28;20048;-66
2021/12/22 08:27:11;;;;;;;29.77;12.55;;;-5.30;99.90;;;;;;5050348;28;20040;-66
2021/12/22 08:29:42;;;;;;;26.48;12.32;;;-5.30;99.90;;;;;;5026780;28;20111;-66
2021/12/22 08:32:09;;;;;;;27.02;11.80;;;-5.20;99.90;;;;;;5046123;28;20266;-66
2021/12/22 08:34:38;;;;;;;29.65;12.65;;;-5.20;99.90;;;;;;5029763;28;20042;-68
2021/12/22 08:39:48;;;;;;;28.95;13.02;;;-5.10;99.90;;;;;;5027605;28;20083;-66
2021/12/22 08:42:14;;;;;;;29.73;12.75;;;-5.00;99.90;;;;;;5021721;28;20064;-66
2021/12/22 08:44:40;;;;;;;24.60;11.85;;;-4.90;99.90;;;;;;5032033;28;20485;-66
2021/12/22 08:47:07;;;;;;;29.02;13.65;;;-4.90;99.90;;;;;;5049824;28;20040;-66
2021/12/22 08:49:33;;;;;;;28.58;13.43;;;-4.90;99.90;;;;;;5044982;28;20041;-66
2021/12/22 08:51:59;;;;;;;30.50;12.98;;;-4.80;99.90;;;;;;5033656;28;20045;-66
2021/12/22 08:54:25;;;;;;;29.75;13.77;;;-4.70;99.90;;;;;;5024622;28;20042;-66
2021/12/22 08:56:51;;;;;;;26.48;13.13;;;-4.70;99.90;;;;;;5029886;28;20068;-65
2021/12/22 08:59:17;;;;;;;29.55;14.23;;;-4.60;99.90;;;;;;5047740;28;20079;-65
2021/12/22 09:01:43;;;;;;;36.97;12.73;;;-4.60;99.90;;;;;;5029998;28;20060;-65
2021/12/22 09:04:10;;;;;;;28.85;13.18;;;-4.50;99.90;;;;;;5030928;28;20067;-65
2021/12/22 09:06:36;;;;;;;27.85;13.45;;;-4.50;99.90;;;;;;5032563;28;20044;-66
2021/12/22 09:09:02;;;;;;;27.60;13.13;;;-4.40;99.90;;;;;;5031976;28;20041;-66
2021/12/22 09:11:28;;;;;;;32.90;13.98;;;-4.40;99.90;;;;;;5030260;28;20033;-66
2021/12/22 09:13:54;;;;;;;31.80;13.45;;;-4.30;99.90;;;;;;5043895;28;20037;-66
2021/12/22 09:16:20;;;;;;;29.40;12.63;;;-4.30;99.90;;;;;;5014874;28;20028;-65
2021/12/22 09:18:46;;;;;;;29.80;13.02;;;-4.20;99.90;;;;;;5012807;28;20120;-66
2021/12/22 09:21:12;;;;;;;27.92;13.27;;;-4.20;99.90;;;;;;5049298;28;20112;-66
2021/12/22 09:23:39;;;;;;;30.48;14.38;;;-4.20;99.90;;;;;;5031743;28;20036;-65
2021/12/22 09:26:05;;;;;;;29.42;13.40;;;-4.10;99.90;;;;;;5046154;28;20048;-65
2021/12/22 09:28:31;;;;;;;29.60;12.52;;;-4.10;99.90;;;;;;5015118;28;20045;-66
2021/12/22 09:30:57;;;;;;;31.58;13.55;;;-4.10;99.90;;;;;;4997609;28;20052;-65
2021/12/22 09:33:25;;;;;;;28.80;13.43;;;-4.00;99.90;;;;;;5010816;28;20033;-65
2021/12/22 09:35:52;;;;;;;28.52;13.23;;;-4.00;99.90;;;;;;5031392;28;20155;-66
2021/12/22 09:38:18;;;;;;;34.78;14.50;;;-4.00;99.90;;;;;;5047289;28;20037;-65
2021/12/22 09:40:45;;;;;;;32.13;13.65;;;-3.90;99.90;;;;;;5028060;28;20037;-66
2021/12/22 09:43:11;;;;;;;30.88;14.30;;;-3.90;99.90;;;;;;5030686;28;20082;-65
2021/12/22 09:45:43;;;;;;;35.45;14.80;;;-3.80;99.90;;;;;;5028051;28;20045;-66
2021/12/22 09:52:16;;;;;;;32.63;13.55;;;-3.70;99.90;;;;;;5019071;28;20138;-66
2021/12/22 09:53:45;;;;;;;35.25;15.52;;;-3.60;99.90;;;;;;5027586;28;20416;-66
2021/12/22 09:56:14;;;;;;;33.78;15.60;;;-3.50;99.90;;;;;;5041056;28;20041;-65
2021/12/22 09:58:41;;;;;;;36.63;14.20;;;-3.40;99.90;;;;;;5027607;28;20029;-65
2021/12/22 10:01:06;;;;;;;36.60;15.40;;;-3.30;99.90;;;;;;5024977;28;20040;-66
2021/12/22 10:03:32;;;;;;;35.67;15.45;;;-3.30;99.90;;;;;;5029386;28;20106;-66
2021/12/22 10:05:58;;;;;;;31.92;13.98;;;-3.20;99.90;;;;;;5029820;28;20048;-65
2021/12/22 10:08:26;;;;;;;37.97;16.13;;;-3.10;99.90;;;;;;5048985;28;20040;-65
2021/12/22 10:11:04;;;;;;;35.25;16.23;;;-3.10;99.90;;;;;;5043534;28;20044;-66
2021/12/22 10:13:30;;;;;;;36.35;17.45;;;-3.00;99.90;;;;;;5022836;28;20046;-65
2021/12/22 10:15:57;;;;;;;31.02;14.60;;;-3.00;99.90;;;;;;5029499;28;20040;-65
2021/12/22 10:18:25;;;;;;;37.47;16.73;;;-2.90;99.90;;;;;;5027838;28;20035;-65
2021/12/22 10:20:54;;;;;;;34.10;15.45;;;-2.80;99.90;;;;;;5027669;28;20042;-66
2021/12/22 10:23:27;;;;;;;34.03;14.82;;;-2.80;99.90;;;;;;5023875;28;20185;-65
2021/12/22 10:26:03;;;;;;;34.80;15.77;;;-2.70;99.90;;;;;;5046708;28;20056;-65
2021/12/22 10:28:45;;;;;;;33.90;15.77;;;-2.70;99.90;;;;;;5013539;28;20048;-67
2021/12/22 10:31:11;;;;;;;34.63;15.77;;;-2.60;99.90;;;;;;5042320;28;20076;-65
2021/12/22 10:33:39;;;;;;;40.50;16.60;;;-2.50;99.90;;;;;;5048017;28;20049;-65
2021/12/22 10:36:17;;;;;;;32.85;16.13;;;-2.50;99.90;;;;;;5031513;28;20048;-65
2021/12/22 10:38:55;;;;;;;31.33;14.25;;;-2.40;99.90;;;;;;5030565;28;20421;-65
2021/12/22 10:41:28;;;;;;;37.47;16.23;;;-2.30;99.90;;;;;;5042970;28;20063;-65
2021/12/22 10:43:54;;;;;;;34.67;15.32;;;-2.30;99.90;;;;;;5046980;28;20068;-66
2021/12/22 10:46:26;;;;;;;36.88;16.55;;;-2.20;99.90;;;;;;5044498;28;20041;-65
2021/12/22 10:49:14;;;;;;;37.90;16.40;;;-2.20;99.90;;;;;;5048441;28;20041;-66
2021/12/22 10:51:43;;;;;;;33.97;15.93;;;-2.10;99.90;;;;;;5045682;28;20047;-66
2021/12/22 10:54:11;;;;;;;37.42;17.13;;;-2.00;99.90;;;;;;5040790;28;20044;-66
2021/12/22 10:56:39;;;;;;;37.50;16.45;;;-1.90;99.90;;;;;;5024092;28;20041;-66
2021/12/22 10:59:16;;;;;;;37.85;17.00;;;-1.80;99.90;;;;;;5026773;28;20048;-66
2021/12/22 11:01:56;;;;;;;33.85;15.45;;;-1.80;99.90;;;;;;5022764;28;20037;-66
2021/12/22 11:04:27;;;;;;;35.97;14.52;;;-1.70;99.90;;;;;;5028457;28;20037;-66
2021/12/22 11:06:56;;;;;;;32.60;15.07;;;-1.70;99.90;;;;;;5028713;28;20041;-66
2021/12/22 11:09:23;;;;;;;31.33;15.40;;;-1.60;99.90;;;;;;5030009;28;20074;-66
2021/12/22 11:11:56;;;;;;;32.70;15.73;;;-1.60;99.90;;;;;;5021798;28;20045;-66
2021/12/22 11:14:27;;;;;;;31.20;14.32;;;-1.50;99.90;;;;;;5028158;28;20033;-66
2021/12/22 11:16:54;;;;;;;28.63;13.60;;;-1.40;99.90;;;;;;5028005;28;20524;-66
2021/12/22 11:19:21;;;;;;;32.67;14.57;;;-1.40;99.90;;;;;;5027747;28;20033;-66
2021/12/22 11:22:14;;;;;;;25.30;12.73;;;-1.30;99.90;;;;;;5049498;28;20350;-66
2021/12/22 11:24:43;;;;;;;25.17;12.60;;;-1.30;99.90;;;;;;5047958;28;20038;-68
2021/12/22 11:27:11;;;;;;;23.58;11.82;;;-1.20;99.90;;;;;;5029788;28;20068;-66
2021/12/22 11:29:40;;;;;;;23.42;11.77;;;-1.20;99.90;;;;;;5046073;28;20034;-66
2021/12/22 11:32:08;;;;;;;23.67;11.85;;;-1.10;99.90;;;;;;5044943;28;20174;-66
2021/12/22 11:34:36;;;;;;;22.70;11.50;;;-1.10;99.90;;;;;;5020482;28;20044;-67
2021/12/22 11:37:04;;;;;;;23.52;11.75;;;-1.00;99.90;;;;;;5026530;28;20030;-66
2021/12/22 11:39:31;;;;;;;21.27;11.00;;;-1.00;99.90;;;;;;5030699;28;20452;-66
2021/12/22 11:41:58;;;;;;;27.80;12.07;;;-1.00;99.90;;;;;;5030311;28;20041;-66
2021/12/22 11:44:28;;;;;;;22.65;10.15;;;-0.90;99.90;;;;;;5032963;28;20052;-65
2021/12/22 11:46:58;;;;;;;;;;;-0.90;99.90;;;;;;5033390;28;20123;-66
2021/12/22 11:49:25;;;;;;;21.52;10.50;;;-0.90;99.90;;;;;;5017783;28;19924;-67
2021/12/22 11:51:51;;;;;;;22.15;10.65;;;-0.80;99.90;;;;;;5034417;28;20401;-67
2021/12/22 11:54:24;;;;;;;25.83;11.00;;;-0.80;99.90;;;;;;5026287;28;20045;-66
2021/12/22 11:56:52;;;;;;;18.83;10.05;;;-0.70;99.90;;;;;;5033279;28;20060;-66
2021/12/22 11:59:40;;;;;;;22.27;10.95;;;-0.70;99.90;;;;;;5032410;28;20044;-66
2021/12/22 12:02:35;;;;;;;22.67;10.70;;;-0.60;99.90;;;;;;5023520;28;20162;-67
2021/12/22 12:05:25;;;;;;;22.35;9.98;;;-0.60;99.90;;;;;;5015454;28;20132;-67
2021/12/22 12:07:53;;;;;;;;;;;-0.60;99.90;;;;;;5029399;28;20036;-67
2021/12/22 12:10:44;;;;;;;19.13;10.02;;;-0.60;99.90;;;;;;5009307;28;19924;-67
2021/12/22 12:13:20;;;;;;;22.02;10.45;;;-0.60;99.90;;;;;;5028290;28;20045;-67
2021/12/22 12:22:36;;;;;;;21.25;10.10;;;-0.60;99.90;;;;;;5029357;28;20139;-67
2021/12/22 12:25:06;;;;;;;24.40;11.40;;;-0.60;99.90;;;;;;5014356;28;20477;-66
2021/12/22 12:27:41;;;;;;;27.40;11.88;;;-0.60;99.90;;;;;;5000776;28;20765;-67
2021/12/22 12:30:15;;;;;;;21.45;10.63;;;-0.60;99.90;;;;;;5012092;28;20041;-66
2021/12/22 12:32:41;;;;;;;28.10;11.30;;;-0.70;99.90;;;;;;5011533;28;20478;-66
2021/12/22 12:35:26;;;;;;;23.65;11.13;;;-0.70;99.90;;;;;;5011903;28;20057;-66
2021/12/22 12:38:14;;;;;;;20.33;10.65;;;-0.70;99.90;;;;;;5029162;28;20545;-67
2021/12/22 12:40:55;;;;;;;26.63;11.73;;;-0.60;99.90;;;;;;5012670;28;20042;-67
2021/12/22 12:46:21;;;;;;;21.88;10.32;;;-0.50;99.90;;;;;;5003350;28;20080;-66
2021/12/22 12:48:55;;;;;;;25.27;12.68;;;-0.60;99.90;;;;;;5011682;28;20041;-66
2021/12/22 12:51:29;;;;;;;26.15;11.60;;;-0.50;99.90;;;;;;5024374;28;20047;-67
2021/12/22 12:53:58;;;;;;;25.10;11.68;;;-0.50;99.90;;;;;;5008682;28;20081;-67
2021/12/22 12:56:31;;;;;;;28.05;11.68;;;-0.50;99.90;;;;;;5011146;28;20034;-67
2021/12/22 12:59:04;;;;;;;21.98;10.88;;;-0.50;99.90;;;;;;5008556;28;20045;-66